sensor_id;sensor_type;location;lat;lon;timestamp;pressure;altitude;pressure_sealevel;temperature;humidity
21129;BME280;10722;51.910;8.352;2023-04-25T00:02:42;100074.16;;;5.82;100.00
21129;BME280;10722;51.910;8.352;2023-04-25T00:05:28;100076.72;;;5.81;100.00
21129;BME280;10722;51.910;8.352;2023-04-25T00:08:13;100071.59;;;5.81;100.00
21129;BME280;10722;51.910;8.352;2023-04-25T00:10:59;100078.66;;;5.90;100.00
21129;BME280;10722;51.910;8.352;2023-04-25T00:13:44;100083.63;;;5.83;100.00
21129;BME280;10722;51.910;8.352;2023-04-25T00:16:30;100084.63;;;5.89;100.00
21129;BME280;10722;51.910;8.352;2023-04-25T00:19:15;100089.66;;;5.85;100.00
21129;BME280;10722;51.910;8.352;2023-04-25T00:22:01;100093.13;;;5.88;100.00
21129;BME280;10722;51.910;8.352;2023-04-25T00:24:47;100091.25;;;5.80;100.00
21129;BME280;10722;51.910;8.352;2023-04-25T00:27:33;100090.47;;;5.83;100.00
21129;BME280;10722;51.910;8.352;2023-04-25T00:30:18;100102.53;;;5.87;100.00
21129;BME280;10722;51.910;8.352;2023-04-25T00:33:03;100098.94;;;5.80;100.00
21129;BME280;10722;51.910;8.352;2023-04-25T00:35:49;100100.75;;;5.84;100.00
21129;BME280;10722;51.910;8.352;2023-04-25T00:38:34;100105.81;;;5.81;100.00
21129;BME280;10722;51.910;8.352;2023-04-25T00:41:19;100104.09;;;5.80;100.00
21129;BME280;10722;51.910;8.352;2023-04-25T00:44:05;100097.97;;;5.75;100.00
21129;BME280;10722;51.910;8.352;2023-04-25T00:46:53;100102.25;;;5.76;100.00
21129;BME280;10722;51.910;8.352;2023-04-25T00:49:39;100097.09;;;5.75;100.00
21129;BME280;10722;51.910;8.352;2023-04-25T00:52:24;100102.16;;;5.73;100.00
21129;BME280;10722;51.910;8.352;2023-04-25T00:55:10;100102.94;;;5.69;100.00
21129;BME280;10722;51.910;8.352;2023-04-25T00:57:57;100095.25;;;5.71;100.00
21129;BME280;10722;51.910;8.352;2023-04-25T01:00:44;100103.72;;;5.68;100.00
21129;BME280;10722;51.910;8.352;2023-04-25T01:03:32;100103.56;;;5.62;100.00
21129;BME280;10722;51.910;8.352;2023-04-25T01:06:18;100105.41;;;5.66;100.00
21129;BME280;10722;51.910;8.352;2023-04-25T01:09:04;100115.88;;;5.74;100.00
21129;BME280;10722;51.910;8.352;2023-04-25T01:11:49;100116.41;;;5.62;100.00
21129;BME280;10722;51.910;8.352;2023-04-25T01:14:35;100125.03;;;5.64;100.00
21129;BME280;10722;51.910;8.352;2023-04-25T01:17:20;100118.81;;;5.56;100.00
21129;BME280;10722;51.910;8.352;2023-04-25T01:20:06;100116.25;;;5.57;100.00
21129;BME280;10722;51.910;8.352;2023-04-25T01:22:52;100119.06;;;5.65;100.00
21129;BME280;10722;51.910;8.352;2023-04-25T01:25:38;100124.72;;;5.53;100.00
21129;BME280;10722;51.910;8.352;2023-04-25T01:28:23;100117.81;;;5.51;100.00
21129;BME280;10722;51.910;8.352;2023-04-25T01:31:09;100119.28;;;5.43;100.00
21129;BME280;10722;51.910;8.352;2023-04-25T01:33:54;100125.19;;;5.40;100.00
21129;BME280;10722;51.910;8.352;2023-04-25T01:36:40;100113.13;;;5.37;100.00
21129;BME280;10722;51.910;8.352;2023-04-25T01:39:25;100119.88;;;5.34;100.00
21129;BME280;10722;51.910;8.352;2023-04-25T01:42:12;100124.41;;;5.43;100.00
21129;BME280;10722;51.910;8.352;2023-04-25T01:44:57;100129.53;;;5.43;100.00
21129;BME280;10722;51.910;8.352;2023-04-25T01:47:44;100136.22;;;5.37;100.00
21129;BME280;10722;51.910;8.352;2023-04-25T01:50:29;100142.09;;;5.33;100.00
21129;BME280;10722;51.910;8.352;2023-04-25T01:53:15;100135.25;;;5.32;100.00
21129;BME280;10722;51.910;8.352;2023-04-25T01:56:00;100142.53;;;5.49;100.00
21129;BME280;10722;51.910;8.352;2023-04-25T01:58:46;100142.22;;;5.67;100.00
21129;BME280;10722;51.910;8.352;2023-04-25T02:01:31;100149.47;;;5.81;100.00
21129;BME280;10722;51.910;8.352;2023-04-25T02:04:17;100138.94;;;5.72;100.00
21129;BME280;10722;51.910;8.352;2023-04-25T02:07:03;100137.25;;;5.43;100.00
21129;BME280;10722;51.910;8.352;2023-04-25T02:09:48;100145.59;;;5.35;100.00
21129;BME280;10722;51.910;8.352;2023-04-25T02:12:33;100152.00;;;5.50;100.00
21129;BME280;10722;51.910;8.352;2023-04-25T02:15:18;100155.06;;;5.68;100.00
21129;BME280;10722;51.910;8.352;2023-04-25T02:18:03;100154.44;;;5.75;100.00
21129;BME280;10722;51.910;8.352;2023-04-25T02:20:48;100156.84;;;5.71;100.00
21129;BME280;10722;51.910;8.352;2023-04-25T02:23:34;100161.41;;;5.51;100.00
21129;BME280;10722;51.910;8.352;2023-04-25T02:26:19;100163.22;;;5.53;100.00
21129;BME280;10722;51.910;8.352;2023-04-25T02:29:04;100167.94;;;5.39;100.00
21129;BME280;10722;51.910;8.352;2023-04-25T02:31:50;100164.75;;;5.48;100.00
21129;BME280;10722;51.910;8.352;2023-04-25T02:34:35;100166.63;;;5.54;100.00
21129;BME280;10722;51.910;8.352;2023-04-25T02:37:21;100177.69;;;5.51;100.00
21129;BME280;10722;51.910;8.352;2023-04-25T02:40:07;100172.59;;;5.53;100.00
21129;BME280;10722;51.910;8.352;2023-04-25T02:42:52;100173.81;;;5.66;100.00
21129;BME280;10722;51.910;8.352;2023-04-25T02:45:37;100169.47;;;5.63;100.00
21129;BME280;10722;51.910;8.352;2023-04-25T02:48:22;100174.59;;;5.63;100.00
21129;BME280;10722;51.910;8.352;2023-04-25T02:51:08;100177.47;;;5.74;100.00
21129;BME280;10722;51.910;8.352;2023-04-25T02:53:53;100182.75;;;5.78;100.00
21129;BME280;10722;51.910;8.352;2023-04-25T02:56:39;100177.47;;;5.74;100.00
21129;BME280;10722;51.910;8.352;2023-04-25T02:59:24;100174.91;;;5.74;100.00
21129;BME280;10722;51.910;8.352;2023-04-25T03:02:09;100170.59;;;5.73;100.00
21129;BME280;10722;51.910;8.352;2023-04-25T03:04:54;100180.09;;;5.75;100.00
21129;BME280;10722;51.910;8.352;2023-04-25T03:07:40;100180.19;;;5.78;100.00
21129;BME280;10722;51.910;8.352;2023-04-25T03:10:25;100186.47;;;5.90;100.00
21129;BME280;10722;51.910;8.352;2023-04-25T03:13:10;100182.06;;;5.85;100.00
21129;BME280;10722;51.910;8.352;2023-04-25T03:15:56;100187.53;;;5.96;100.00
21129;BME280;10722;51.910;8.352;2023-04-25T03:18:41;100186.91;;;6.03;100.00
21129;BME280;10722;51.910;8.352;2023-04-25T03:21:26;100189.63;;;6.10;100.00
21129;BME280;10722;51.910;8.352;2023-04-25T03:24:13;100194.91;;;6.16;100.00
21129;BME280;10722;51.910;8.352;2023-04-25T03:26:58;100194.81;;;6.11;100.00
21129;BME280;10722;51.910;8.352;2023-04-25T03:29:44;100193.50;;;6.27;100.00
21129;BME280;10722;51.910;8.352;2023-04-25T03:32:29;100192.88;;;6.36;100.00
21129;BME280;10722;51.910;8.352;2023-04-25T03:35:15;100192.31;;;6.14;100.00
21129;BME280;10722;51.910;8.352;2023-04-25T03:38:00;100188.69;;;6.07;100.00
21129;BME280;10722;51.910;8.352;2023-04-25T03:40:45;100195.53;;;6.07;100.00
21129;BME280;10722;51.910;8.352;2023-04-25T03:43:30;100202.69;;;6.19;100.00
21129;BME280;10722;51.910;8.352;2023-04-25T03:46:16;100201.81;;;6.17;100.00
21129;BME280;10722;51.910;8.352;2023-04-25T03:49:01;100208.00;;;6.25;100.00
21129;BME280;10722;51.910;8.352;2023-04-25T03:51:46;100208.63;;;6.16;100.00
21129;BME280;10722;51.910;8.352;2023-04-25T03:54:32;100209.78;;;6.27;100.00
21129;BME280;10722;51.910;8.352;2023-04-25T03:57:17;100210.47;;;6.20;100.00
21129;BME280;10722;51.910;8.352;2023-04-25T04:00:03;100218.53;;;6.34;100.00
21129;BME280;10722;51.910;8.352;2023-04-25T04:02:48;100213.56;;;6.09;100.00
21129;BME280;10722;51.910;8.352;2023-04-25T04:05:34;100214.09;;;5.97;100.00
21129;BME280;10722;51.910;8.352;2023-04-25T04:08:19;100211.50;;;5.97;100.00
21129;BME280;10722;51.910;8.352;2023-04-25T04:11:04;100221.00;;;5.99;100.00
21129;BME280;10722;51.910;8.352;2023-04-25T04:13:50;100224.31;;;5.95;100.00
21129;BME280;10722;51.910;8.352;2023-04-25T04:16:35;100225.44;;;6.05;100.00
21129;BME280;10722;51.910;8.352;2023-04-25T04:19:20;100226.97;;;5.98;100.00
21129;BME280;10722;51.910;8.352;2023-04-25T04:22:06;100229.13;;;5.84;100.00
21129;BME280;10722;51.910;8.352;2023-04-25T04:24:51;100226.06;;;5.96;100.00
21129;BME280;10722;51.910;8.352;2023-04-25T04:27:37;100226.72;;;5.91;100.00
21129;BME280;10722;51.910;8.352;2023-04-25T04:30:23;100234.34;;;5.88;100.00
21129;BME280;10722;51.910;8.352;2023-04-25T04:33:09;100225.63;;;5.82;100.00
21129;BME280;10722;51.910;8.352;2023-04-25T04:35:54;100236.50;;;6.02;100.00
21129;BME280;10722;51.910;8.352;2023-04-25T04:38:39;100240.56;;;5.94;100.00
21129;BME280;10722;51.910;8.352;2023-04-25T04:41:26;100246.75;;;6.02;100.00
21129;BME280;10722;51.910;8.352;2023-04-25T04:44:11;100246.41;;;5.90;100.00
21129;BME280;10722;51.910;8.352;2023-04-25T04:46:56;100256.78;;;5.93;100.00
21129;BME280;10722;51.910;8.352;2023-04-25T04:49:42;100250.59;;;5.87;100.00
21129;BME280;10722;51.910;8.352;2023-04-25T04:52:27;100251.13;;;5.76;100.00
21129;BME280;10722;51.910;8.352;2023-04-25T04:55:12;100253.84;;;5.81;100.00
21129;BME280;10722;51.910;8.352;2023-04-25T04:57:57;100248.09;;;5.90;100.00
21129;BME280;10722;51.910;8.352;2023-04-25T05:00:42;100248.97;;;5.90;100.00
21129;BME280;10722;51.910;8.352;2023-04-25T05:03:28;100260.47;;;5.74;100.00
21129;BME280;10722;51.910;8.352;2023-04-25T05:06:13;100258.81;;;5.76;100.00
21129;BME280;10722;51.910;8.352;2023-04-25T05:08:59;100261.63;;;5.84;100.00
21129;BME280;10722;51.910;8.352;2023-04-25T05:11:44;100263.72;;;5.96;100.00
21129;BME280;10722;51.910;8.352;2023-04-25T05:14:29;100267.44;;;6.05;100.00
21129;BME280;10722;51.910;8.352;2023-04-25T05:17:14;100267.44;;;6.07;100.00
21129;BME280;10722;51.910;8.352;2023-04-25T05:20:00;100261.91;;;5.93;100.00
21129;BME280;10722;51.910;8.352;2023-04-25T05:22:45;100272.34;;;5.99;100.00
21129;BME280;10722;51.910;8.352;2023-04-25T05:25:30;100261.97;;;5.95;100.00
21129;BME280;10722;51.910;8.352;2023-04-25T05:28:16;100270.03;;;5.80;100.00
21129;BME280;10722;51.910;8.352;2023-04-25T05:31:01;100272.28;;;5.96;100.00
21129;BME280;10722;51.910;8.352;2023-04-25T05:33:47;100269.19;;;6.08;100.00
21129;BME280;10722;51.910;8.352;2023-04-25T05:36:32;100263.47;;;6.18;100.00
21129;BME280;10722;51.910;8.352;2023-04-25T05:39:18;100268.41;;;6.11;100.00
21129;BME280;10722;51.910;8.352;2023-04-25T05:42:03;100269.50;;;6.19;100.00
21129;BME280;10722;51.910;8.352;2023-04-25T05:44:48;100275.84;;;6.32;100.00
21129;BME280;10722;51.910;8.352;2023-04-25T05:47:33;100280.00;;;6.26;100.00
21129;BME280;10722;51.910;8.352;2023-04-25T05:50:19;100281.09;;;6.36;100.00
21129;BME280;10722;51.910;8.352;2023-04-25T05:53:04;100277.41;;;6.26;100.00
21129;BME280;10722;51.910;8.352;2023-04-25T05:55:49;100280.91;;;6.28;100.00
21129;BME280;10722;51.910;8.352;2023-04-25T05:58:35;100290.66;;;6.42;100.00
21129;BME280;10722;51.910;8.352;2023-04-25T06:01:21;100283.50;;;6.30;100.00
21129;BME280;10722;51.910;8.352;2023-04-25T06:04:06;100289.94;;;6.46;100.00
21129;BME280;10722;51.910;8.352;2023-04-25T06:06:52;100291.97;;;6.58;100.00
21129;BME280;10722;51.910;8.352;2023-04-25T06:09:37;100284.63;;;6.71;100.00
21129;BME280;10722;51.910;8.352;2023-04-25T06:12:22;100283.31;;;6.87;100.00
21129;BME280;10722;51.910;8.352;2023-04-25T06:15:08;100274.81;;;6.90;100.00
21129;BME280;10722;51.910;8.352;2023-04-25T06:18:11;100271.69;;;7.02;100.00
21129;BME280;10722;51.910;8.352;2023-04-25T06:20:56;100275.75;;;6.93;100.00
21129;BME280;10722;51.910;8.352;2023-04-25T06:23:42;100270.63;;;6.95;100.00
21129;BME280;10722;51.910;8.352;2023-04-25T06:26:27;100258.13;;;7.09;100.00
21129;BME280;10722;51.910;8.352;2023-04-25T06:29:12;100244.84;;;6.92;100.00
21129;BME280;10722;51.910;8.352;2023-04-25T06:31:58;100251.03;;;6.99;100.00
21129;BME280;10722;51.910;8.352;2023-04-25T06:34:43;100239.53;;;6.84;100.00
21129;BME280;10722;51.910;8.352;2023-04-25T06:37:28;100235.19;;;6.83;99.93
21129;BME280;10722;51.910;8.352;2023-04-25T06:40:13;100246.88;;;7.05;100.00
21129;BME280;10722;51.910;8.352;2023-04-25T06:42:59;100253.03;;;7.10;100.00
21129;BME280;10722;51.910;8.352;2023-04-25T06:45:44;100241.97;;;7.14;98.76
21129;BME280;10722;51.910;8.352;2023-04-25T06:48:32;100226.84;;;6.92;97.18
21129;BME280;10722;51.910;8.352;2023-04-25T06:51:17;100216.03;;;7.05;96.85
21129;BME280;10722;51.910;8.352;2023-04-25T06:54:02;100224.75;;;7.12;96.20
21129;BME280;10722;51.910;8.352;2023-04-25T06:56:48;100216.16;;;7.11;95.63
21129;BME280;10722;51.910;8.352;2023-04-25T06:59:33;100217.03;;;7.12;95.39
21129;BME280;10722;51.910;8.352;2023-04-25T07:02:18;100217.00;;;7.10;94.20
21129;BME280;10722;51.910;8.352;2023-04-25T07:05:04;100208.75;;;6.87;93.55
21129;BME280;10722;51.910;8.352;2023-04-25T07:07:49;100224.88;;;7.16;93.78
21129;BME280;10722;51.910;8.352;2023-04-25T07:10:34;100213.19;;;7.31;93.12
21129;BME280;10722;51.910;8.352;2023-04-25T07:13:20;100206.63;;;7.45;92.11
21129;BME280;10722;51.910;8.352;2023-04-25T07:16:05;100213.59;;;7.49;92.00
21129;BME280;10722;51.910;8.352;2023-04-25T07:18:50;100197.38;;;7.53;90.39
21129;BME280;10722;51.910;8.352;2023-04-25T07:21:36;100193.25;;;7.61;90.23
21129;BME280;10722;51.910;8.352;2023-04-25T07:24:21;100185.50;;;7.60;89.59
21129;BME280;10722;51.910;8.352;2023-04-25T07:27:06;100203.69;;;7.68;89.21
21129;BME280;10722;51.910;8.352;2023-04-25T07:29:51;100196.31;;;7.44;88.64
21129;BME280;10722;51.910;8.352;2023-04-25T07:32:37;100193.94;;;7.13;88.52
21129;BME280;10722;51.910;8.352;2023-04-25T07:35:23;100215.19;;;7.44;88.69
21129;BME280;10722;51.910;8.352;2023-04-25T07:38:09;100201.34;;;7.39;88.37
21129;BME280;10722;51.910;8.352;2023-04-25T07:40:54;100213.91;;;7.64;88.38
21129;BME280;10722;51.910;8.352;2023-04-25T07:43:39;100196.22;;;7.39;87.58
21129;BME280;10722;51.910;8.352;2023-04-25T07:46:24;100190.22;;;7.40;86.68
21129;BME280;10722;51.910;8.352;2023-04-25T07:49:10;100210.53;;;7.67;87.29
21129;BME280;10722;51.910;8.352;2023-04-25T07:51:55;100157.59;;;7.39;84.55
21129;BME280;10722;51.910;8.352;2023-04-25T07:54:40;100167.63;;;7.68;84.49
21129;BME280;10722;51.910;8.352;2023-04-25T07:57:26;100138.50;;;7.69;82.20
21129;BME280;10722;51.910;8.352;2023-04-25T08:00:11;100127.56;;;7.80;81.46
21129;BME280;10722;51.910;8.352;2023-04-25T08:02:56;100125.06;;;7.85;81.01
21129;BME280;10722;51.910;8.352;2023-04-25T08:05:42;100129.13;;;7.74;80.31
21129;BME280;10722;51.910;8.352;2023-04-25T08:08:28;100123.16;;;7.75;80.16
21129;BME280;10722;51.910;8.352;2023-04-25T08:11:13;100103.75;;;7.48;78.95
21129;BME280;10722;51.910;8.352;2023-04-25T08:13:59;100137.53;;;7.65;79.52
21129;BME280;10722;51.910;8.352;2023-04-25T08:16:44;100152.78;;;7.98;79.23
21129;BME280;10722;51.910;8.352;2023-04-25T08:19:30;100150.63;;;8.21;78.79
21129;BME280;10722;51.910;8.352;2023-04-25T08:22:15;100160.28;;;8.33;78.64
21129;BME280;10722;51.910;8.352;2023-04-25T08:25:01;100131.09;;;8.36;77.46
21129;BME280;10722;51.910;8.352;2023-04-25T08:27:46;100143.69;;;8.66;76.42
21129;BME280;10722;51.910;8.352;2023-04-25T08:30:32;100102.22;;;9.10;74.11
21129;BME280;10722;51.910;8.352;2023-04-25T08:33:17;100068.16;;;8.74;73.01
21129;BME280;10722;51.910;8.352;2023-04-25T08:36:02;100090.72;;;8.88;72.58
21129;BME280;10722;51.910;8.352;2023-04-25T08:38:48;100073.75;;;9.05;71.22
21129;BME280;10722;51.910;8.352;2023-04-25T08:41:36;100078.94;;;9.08;70.99
21129;BME280;10722;51.910;8.352;2023-04-25T08:44:22;100112.78;;;9.31;71.49
21129;BME280;10722;51.910;8.352;2023-04-25T08:47:07;100101.63;;;9.32;70.02
21129;BME280;10722;51.910;8.352;2023-04-25T08:49:53;100071.44;;;9.27;68.80
21129;BME280;10722;51.910;8.352;2023-04-25T08:52:45;100061.00;;;9.16;67.84
21129;BME280;10722;51.910;8.352;2023-04-25T08:55:32;100089.63;;;9.37;68.24
21129;BME280;10722;51.910;8.352;2023-04-25T08:58:18;100141.38;;;9.43;68.80
21129;BME280;10722;51.910;8.352;2023-04-25T09:01:04;100111.78;;;9.20;67.82
21129;BME280;10722;51.910;8.352;2023-04-25T09:03:50;100137.16;;;9.52;68.16
21129;BME280;10722;51.910;8.352;2023-04-25T09:06:35;100121.16;;;9.83;66.69
21129;BME280;10722;51.910;8.352;2023-04-25T09:09:21;100107.31;;;9.75;65.91
21129;BME280;10722;51.910;8.352;2023-04-25T09:12:06;100141.53;;;10.38;66.29
21129;BME280;10722;51.910;8.352;2023-04-25T09:15:06;100103.34;;;11.26;63.50
21129;BME280;10722;51.910;8.352;2023-04-25T09:17:58;100065.88;;;10.62;62.70
21129;BME280;10722;51.910;8.352;2023-04-25T09:20:44;100064.81;;;10.36;62.05
21129;BME280;10722;51.910;8.352;2023-04-25T09:23:47;100076.47;;;11.04;60.96
21129;BME280;10722;51.910;8.352;2023-04-25T09:26:33;100101.81;;;11.72;60.82
21129;BME280;10722;51.910;8.352;2023-04-25T09:29:28;100134.81;;;12.70;59.87
21129;BME280;10722;51.910;8.352;2023-04-25T09:35:01;100034.16;;;10.97;57.75
21129;BME280;10722;51.910;8.352;2023-04-25T09:37:46;100124.19;;;11.59;58.68
21129;BME280;10722;51.910;8.352;2023-04-25T09:40:31;100169.38;;;12.43;59.41
21129;BME280;10722;51.910;8.352;2023-04-25T09:43:21;100120.91;;;12.98;56.78
21129;BME280;10722;51.910;8.352;2023-04-25T09:46:09;100053.31;;;11.33;56.05
21129;BME280;10722;51.910;8.352;2023-04-25T09:48:54;100083.09;;;10.57;56.90
21129;BME280;10722;51.910;8.352;2023-04-25T09:51:40;100102.84;;;10.49;57.74
21129;BME280;10722;51.910;8.352;2023-04-25T09:54:25;100129.31;;;10.23;58.44
21129;BME280;10722;51.910;8.352;2023-04-25T09:57:16;100134.78;;;10.51;57.59
21129;BME280;10722;51.910;8.352;2023-04-25T10:00:02;100149.84;;;10.06;58.56
21129;BME280;10722;51.910;8.352;2023-04-25T10:02:48;100144.28;;;9.73;58.18
21129;BME280;10722;51.910;8.352;2023-04-25T10:05:35;100179.00;;;9.28;59.81
21129;BME280;10722;51.910;8.352;2023-04-25T10:08:22;100205.06;;;9.45;60.24
21129;BME280;10722;51.910;8.352;2023-04-25T10:11:08;100242.16;;;9.50;61.11
21129;BME280;10722;51.910;8.352;2023-04-25T10:13:55;100250.69;;;9.46;61.16
21129;BME280;10722;51.910;8.352;2023-04-25T10:16:41;100285.31;;;9.60;62.64
21129;BME280;10722;51.910;8.352;2023-04-25T10:19:27;100297.66;;;9.79;62.58
21129;BME280;10722;51.910;8.352;2023-04-25T10:22:28;100281.44;;;9.90;61.94
21129;BME280;10722;51.910;8.352;2023-04-25T10:25:14;100269.34;;;9.85;61.53
21129;BME280;10722;51.910;8.352;2023-04-25T10:28:00;100252.94;;;9.83;60.84
21129;BME280;10722;51.910;8.352;2023-04-25T10:31:02;100215.72;;;9.07;60.63
21129;BME280;10722;51.910;8.352;2023-04-25T10:33:48;100246.63;;;9.05;61.00
21129;BME280;10722;51.910;8.352;2023-04-25T10:36:34;100291.78;;;9.30;62.24
21129;BME280;10722;51.910;8.352;2023-04-25T10:39:24;100265.38;;;9.51;61.00
21129;BME280;10722;51.910;8.352;2023-04-25T10:42:09;100227.28;;;9.33;59.87
21129;BME280;10722;51.910;8.352;2023-04-25T10:45:05;100246.19;;;9.32;60.68
21129;BME280;10722;51.910;8.352;2023-04-25T10:47:51;100273.47;;;9.73;61.03
21129;BME280;10722;51.910;8.352;2023-04-25T10:50:38;100331.56;;;10.04;63.21
21129;BME280;10722;51.910;8.352;2023-04-25T10:53:24;100342.44;;;10.44;62.83
21129;BME280;10722;51.910;8.352;2023-04-25T10:56:19;100280.25;;;10.33;60.91
21129;BME280;10722;51.910;8.352;2023-04-25T10:59:16;100280.69;;;9.97;61.24
21129;BME280;10722;51.910;8.352;2023-04-25T11:02:11;100286.22;;;10.27;61.32
21129;BME280;10722;51.910;8.352;2023-04-25T11:04:56;100236.28;;;10.30;58.88
21129;BME280;10722;51.910;8.352;2023-04-25T11:07:54;100276.41;;;10.73;60.06
21129;BME280;10722;51.910;8.352;2023-04-25T11:10:52;100252.13;;;10.59;59.25
21129;BME280;10722;51.910;8.352;2023-04-25T11:13:37;100222.72;;;10.51;57.99
21129;BME280;10722;51.910;8.352;2023-04-25T11:16:24;100231.88;;;10.23;58.57
21129;BME280;10722;51.910;8.352;2023-04-25T11:19:12;100217.59;;;9.81;58.33
21129;BME280;10722;51.910;8.352;2023-04-25T11:21:59;100262.28;;;9.75;59.44
21129;BME280;10722;51.910;8.352;2023-04-25T11:24:45;100246.44;;;9.51;59.50
21129;BME280;10722;51.910;8.352;2023-04-25T11:27:30;100299.47;;;9.86;60.45
21129;BME280;10722;51.910;8.352;2023-04-25T11:30:17;100281.53;;;9.97;60.17
21129;BME280;10722;51.910;8.352;2023-04-25T11:33:02;100309.47;;;10.26;60.39
21129;BME280;10722;51.910;8.352;2023-04-25T11:35:48;100265.47;;;10.24;58.89
21129;BME280;10722;51.910;8.352;2023-04-25T11:38:34;100253.97;;;9.99;58.24
21129;BME280;10722;51.910;8.352;2023-04-25T11:41:20;100252.63;;;9.60;58.29
21129;BME280;10722;51.910;8.352;2023-04-25T11:44:05;100305.69;;;10.01;59.97
21129;BME280;10722;51.910;8.352;2023-04-25T11:46:50;100280.78;;;10.06;59.17
21129;BME280;10722;51.910;8.352;2023-04-25T11:49:36;100287.06;;;10.26;58.89
21129;BME280;10722;51.910;8.352;2023-04-25T11:52:22;100301.88;;;10.37;59.58
21129;BME280;10722;51.910;8.352;2023-04-25T11:55:18;100293.03;;;10.19;59.16
21129;BME280;10722;51.910;8.352;2023-04-25T11:58:04;100274.44;;;9.81;58.77
21129;BME280;10722;51.910;8.352;2023-04-25T12:00:50;100303.50;;;10.28;58.97
21129;BME280;10722;51.910;8.352;2023-04-25T12:03:45;100307.72;;;10.23;59.05
21129;BME280;10722;51.910;8.352;2023-04-25T12:06:32;100326.41;;;10.02;59.54
21129;BME280;10722;51.910;8.352;2023-04-25T12:09:27;100379.06;;;11.69;59.35
21129;BME280;10722;51.910;8.352;2023-04-25T12:12:13;100294.78;;;12.46;55.38
21129;BME280;10722;51.910;8.352;2023-04-25T12:15:08;100253.34;;;13.09;53.30
21129;BME280;10722;51.910;8.352;2023-04-25T12:17:54;100238.41;;;11.93;54.37
21129;BME280;10722;51.910;8.352;2023-04-25T12:20:41;100178.84;;;10.62;53.60
21129;BME280;10722;51.910;8.352;2023-04-25T12:23:27;100275.41;;;10.62;56.47
21129;BME280;10722;51.910;8.352;2023-04-25T12:26:14;100298.97;;;10.90;56.90
21129;BME280;10722;51.910;8.352;2023-04-25T12:28:59;100289.47;;;10.89;56.53
21129;BME280;10722;51.910;8.352;2023-04-25T12:31:45;100332.03;;;11.23;58.10
21129;BME280;10722;51.910;8.352;2023-04-25T12:34:32;100282.22;;;11.56;55.10
21129;BME280;10722;51.910;8.352;2023-04-25T12:37:17;100297.34;;;12.31;54.93
21129;BME280;10722;51.910;8.352;2023-04-25T12:40:03;100249.88;;;12.90;52.80
21129;BME280;10722;51.910;8.352;2023-04-25T12:42:48;100222.00;;;13.90;50.66
21129;BME280;10722;51.910;8.352;2023-04-25T12:45:33;100232.97;;;14.57;50.20
21129;BME280;10722;51.910;8.352;2023-04-25T12:48:19;100161.28;;;14.01;48.53
21129;BME280;10722;51.910;8.352;2023-04-25T12:51:05;100164.56;;;11.20;52.07
21129;BME280;10722;51.910;8.352;2023-04-25T12:53:50;100251.25;;;11.75;53.56
21129;BME280;10722;51.910;8.352;2023-04-25T12:56:36;100306.97;;;12.79;54.24
21129;BME280;10722;51.910;8.352;2023-04-25T12:59:21;100265.47;;;13.41;52.16
21129;BME280;10722;51.910;8.352;2023-04-25T13:02:06;100255.06;;;13.42;52.07
21129;BME280;10722;51.910;8.352;2023-04-25T13:04:52;100254.81;;;14.16;51.13
21129;BME280;10722;51.910;8.352;2023-04-25T13:07:37;100234.88;;;14.18;50.21
21129;BME280;10722;51.910;8.352;2023-04-25T13:10:22;100223.91;;;13.30;51.23
21129;BME280;10722;51.910;8.352;2023-04-25T13:13:07;100273.22;;;13.61;52.32
21129;BME280;10722;51.910;8.352;2023-04-25T13:15:53;100193.63;;;12.83;50.58
21129;BME280;10722;51.910;8.352;2023-04-25T13:18:38;100214.38;;;12.86;51.33
21129;BME280;10722;51.910;8.352;2023-04-25T13:21:23;100260.25;;;12.70;53.33
21129;BME280;10722;51.910;8.352;2023-04-25T13:24:08;100268.88;;;12.72;53.26
21129;BME280;10722;51.910;8.352;2023-04-25T13:26:54;100210.06;;;12.65;50.41
21129;BME280;10722;51.910;8.352;2023-04-25T13:29:39;100283.81;;;11.36;55.02
21129;BME280;10722;51.910;8.352;2023-04-25T13:32:25;100342.00;;;10.80;57.79
21129;BME280;10722;51.910;8.352;2023-04-25T13:35:12;100360.28;;;10.24;59.52
21129;BME280;10722;51.910;8.352;2023-04-25T13:37:58;100378.06;;;10.01;59.77
21129;BME280;10722;51.910;8.352;2023-04-25T13:40:43;100423.16;;;10.21;61.01
21129;BME280;10722;51.910;8.352;2023-04-25T13:43:28;100418.16;;;10.30;60.52
21129;BME280;10722;51.910;8.352;2023-04-25T13:46:14;100437.94;;;10.95;60.68
21129;BME280;10722;51.910;8.352;2023-04-25T13:49:19;100420.22;;;11.35;59.21
21129;BME280;10722;51.910;8.352;2023-04-25T13:52:04;100376.31;;;11.51;57.08
21129;BME280;10722;51.910;8.352;2023-04-25T13:54:50;100378.88;;;11.48;56.77
21129;BME280;10722;51.910;8.352;2023-04-25T13:57:35;100385.81;;;11.50;57.46
21129;BME280;10722;51.910;8.352;2023-04-25T14:00:23;100355.09;;;10.94;56.68
21129;BME280;10722;51.910;8.352;2023-04-25T14:03:09;100349.59;;;10.66;56.71
21129;BME280;10722;51.910;8.352;2023-04-25T14:05:54;100358.34;;;10.77;57.18
21129;BME280;10722;51.910;8.352;2023-04-25T14:08:39;100373.41;;;10.38;58.05
21129;BME280;10722;51.910;8.352;2023-04-25T14:11:25;100392.22;;;10.27;58.69
21129;BME280;10722;51.910;8.352;2023-04-25T14:14:10;100384.97;;;10.02;58.97
21129;BME280;10722;51.910;8.352;2023-04-25T14:16:56;100435.78;;;10.00;60.84
21129;BME280;10722;51.910;8.352;2023-04-25T14:19:41;100419.97;;;9.80;60.31
21129;BME280;10722;51.910;8.352;2023-04-25T14:22:27;100436.72;;;9.52;61.29
21129;BME280;10722;51.910;8.352;2023-04-25T14:25:12;100470.56;;;8.76;64.03
21129;BME280;10722;51.910;8.352;2023-04-25T14:27:57;100559.16;;;8.42;67.61
21129;BME280;10722;51.910;8.352;2023-04-25T14:30:44;100615.25;;;8.50;70.67
21129;BME280;10722;51.910;8.352;2023-04-25T14:33:29;100638.81;;;8.31;72.60
21129;BME280;10722;51.910;8.352;2023-04-25T14:36:15;100656.50;;;7.85;74.65